Time;durP1;ratioP1;P1;durP2;ratioP2;P2;SDS_P1;SDS_P2;PMS_P1;PMS_P2;Temp;Humidity;BMP_temperature;BMP_pressure;BME280_temperature;BME280_humidity;BME280_pressure;Samples;Min_cycle;Max_cycle;Signal;HPM_P1;HPM_P2
2023/12/06 00:02:22;;;;;;;47.25;17.90;;;;;;;1.02;100.00;97246.19;5039310;28;20545;-78
2023/12/06 00:04:48;;;;;;;53.35;18.70;;;;;;;0.90;100.00;97251.81;5055695;28;20032;-78
2023/12/06 00:07:13;;;;;;;59.47;19.40;;;;;;;0.81;100.00;97257.34;5055589;28;20519;-78
2023/12/06 00:09:39;;;;;;;53.05;19.25;;;;;;;0.83;100.00;97255.53;5055702;28;20024;-79
2023/12/06 00:12:05;;;;;;;57.10;20.95;;;;;;;0.79;100.00;97259.16;5055552;28;20021;-78
2023/12/06 00:14:30;;;;;;;49.75;17.88;;;;;;;0.79;100.00;97257.41;5073628;28;20032;-78
2023/12/06 00:16:56;;;;;;;47.45;18.83;;;;;;;0.91;100.00;97259.69;5038964;28;20036;-78
2023/12/06 00:19:23;;;;;;;50.03;18.50;;;;;;;0.98;100.00;97260.38;5055717;28;20025;-77
2023/12/06 00:21:48;;;;;;;45.50;19.25;;;;;;;1.02;100.00;97252.31;5057236;28;20496;-78
2023/12/06 00:24:14;;;;;;;57.88;21.25;;;;;;;1.12;100.00;97267.84;5075679;28;20175;-77
2023/12/06 00:26:40;;;;;;;54.47;19.67;;;;;;;1.15;100.00;97255.44;5093497;28;20020;-77
2023/12/06 00:29:05;;;;;;;47.97;18.05;;;;;;;1.25;100.00;97263.94;5075524;28;20123;-78
2023/12/06 00:31:31;;;;;;;46.80;18.08;;;;;;;1.28;100.00;97245.41;5092263;28;20032;-78
2023/12/06 00:33:56;;;;;;;51.88;19.35;;;;;;;1.37;100.00;97259.19;5079941;28;20107;-78
2023/12/06 00:36:22;;;;;;;47.60;20.05;;;;;;;1.27;100.00;97246.31;5055168;28;20485;-78
2023/12/06 00:38:48;;;;;;;67.03;22.45;;;;;;;1.24;100.00;97239.38;5063666;28;20103;-78
2023/12/06 00:41:13;;;;;;;62.60;21.45;;;;;;;1.23;100.00;97242.91;5055101;28;20479;-78
2023/12/06 00:43:39;;;;;;;58.97;20.95;;;;;;;1.19;100.00;97243.94;5067837;28;20036;-78
2023/12/06 00:46:05;;;;;;;58.45;21.20;;;;;;;1.19;100.00;97246.56;5054977;28;20094;-79
2023/12/06 00:48:30;;;;;;;54.17;19.33;;;;;;;1.16;100.00;97230.84;5072808;28;20036;-78
2023/12/06 00:50:56;;;;;;;57.88;20.73;;;;;;;1.16;100.00;97233.50;5037818;28;20121;-78
2023/12/06 00:53:21;;;;;;;52.72;21.25;;;;;;;1.20;100.00;97231.63;5062996;28;20032;-78
2023/12/06 00:55:47;;;;;;;48.35;19.92;;;;;;;1.18;100.00;97230.78;5074521;28;20028;-79
2023/12/06 00:58:12;;;;;;;48.10;19.75;;;;;;;1.14;100.00;97227.38;5093108;28;20451;-77
2023/12/06 01:00:38;;;;;;;50.60;19.88;;;;;;;1.14;100.00;97224.75;5083094;28;20122;-77
2023/12/06 01:03:04;;;;;;;54.15;20.77;;;;;;;1.10;100.00;97217.88;5074999;28;20112;-78
2023/12/06 01:05:29;;;;;;;52.10;20.13;;;;;;;1.04;100.00;97218.06;5091327;28;20036;-77
2023/12/06 01:07:55;;;;;;;57.20;19.20;;;;;;;1.00;100.00;97232.22;5092141;28;20028;-78
2023/12/06 01:10:22;;;;;;;59.80;21.08;;;;;;;1.03;100.00;97219.81;5074650;28;20034;-78
2023/12/06 01:12:47;;;;;;;60.88;22.27;;;;;;;1.14;100.00;97230.03;5092590;28;20190;-78
2023/12/06 01:15:13;;;;;;;61.70;26.35;;;;;;;1.16;100.00;97215.06;5074540;28;20115;-77
2023/12/06 01:17:38;;;;;;;78.07;28.30;;;;;;;1.13;100.00;97215.16;5074314;28;20054;-78
2023/12/06 01:20:08;;;;;;;74.82;25.63;;;;;;;1.17;100.00;97219.41;5074677;28;20027;-77
2023/12/06 01:22:34;;;;;;;63.72;23.88;;;;;;;1.23;100.00;97216.56;5091083;28;20119;-77
2023/12/06 01:25:00;;;;;;;69.55;25.35;;;;;;;1.26;100.00;97208.56;5057962;28;20182;-78
2023/12/06 01:27:25;;;;;;;58.40;22.83;;;;;;;1.31;100.00;97211.94;5041149;28;20479;-78
2023/12/06 01:29:51;;;;;;;53.53;22.02;;;;;;;1.28;100.00;97200.63;5074199;28;20020;-78
2023/12/06 01:32:16;;;;;;;59.80;22.83;;;;;;;1.28;100.00;97209.41;5090916;28;20034;-78
2023/12/06 01:34:42;;;;;;;59.53;22.05;;;;;;;1.32;100.00;97211.06;5074311;28;20032;-78
2023/12/06 01:37:08;;;;;;;58.72;22.77;;;;;;;1.25;100.00;97206.00;5051755;28;20032;-78
2023/12/06 01:39:33;;;;;;;53.85;21.95;;;;;;;1.23;100.00;97195.50;5074045;28;20039;-79
2023/12/06 01:41:59;;;;;;;53.92;22.58;;;;;;;1.26;100.00;97213.84;5074050;28;20511;-78
2023/12/06 01:44:25;;;;;;;50.55;20.33;;;;;;;1.39;100.00;97211.69;5073999;28;21311;-78
2023/12/06 01:46:51;;;;;;;59.38;21.10;;;;;;;1.37;100.00;97201.22;5074276;28;20081;-78
2023/12/06 01:49:17;;;;;;;53.67;21.35;;;;;;;1.35;100.00;97203.06;5056863;28;20024;-77
2023/12/06 01:51:42;;;;;;;53.38;20.98;;;;;;;1.24;100.00;97191.97;5073839;28;20138;-78
2023/12/06 01:54:09;;;;;;;58.13;22.02;;;;;;;1.09;100.00;97190.69;5073726;28;20034;-78
2023/12/06 01:56:36;;;;;;;55.50;20.88;;;;;;;1.04;100.00;97191.72;5068676;28;20036;-77
2023/12/06 01:59:02;;;;;;;54.67;20.33;;;;;;;0.96;100.00;97193.72;5060860;28;20106;-77
2023/12/06 02:01:27;;;;;;;50.70;20.10;;;;;;;0.96;100.00;97183.19;5088824;28;20130;-77
2023/12/06 02:03:53;;;;;;;53.78;20.50;;;;;;;0.90;100.00;97193.91;5055015;28;20121;-78
2023/12/06 02:06:19;;;;;;;51.03;19.58;;;;;;;0.86;100.00;97184.38;5053409;28;20062;-78
2023/12/06 02:08:46;;;;;;;48.92;19.15;;;;;;;0.90;100.00;97180.72;5053476;28;20028;-78
2023/12/06 02:11:11;;;;;;;51.85;19.45;;;;;;;0.89;100.00;97185.13;5053423;28;20373;-76
2023/12/06 02:13:37;;;;;;;55.50;21.42;;;;;;;0.88;100.00;97179.94;5050035;28;20089;-77
2023/12/06 02:16:03;;;;;;;53.60;21.52;;;;;;;0.99;100.00;97183.09;5073328;28;20093;-77
2023/12/06 02:18:29;;;;;;;61.05;22.33;;;;;;;0.95;100.00;97186.75;5069552;28;20029;-78
2023/12/06 02:20:56;;;;;;;48.28;20.10;;;;;;;1.04;100.00;97181.19;5053438;28;20030;-78
2023/12/06 02:23:25;;;;;;;57.38;21.17;;;;;;;1.08;100.00;97186.31;5063416;28;20042;-77
2023/12/06 02:25:51;;;;;;;50.92;20.42;;;;;;;1.12;100.00;97175.69;5073654;28;20047;-77
2023/12/06 02:28:16;;;;;;;55.35;19.60;;;;;;;1.02;100.00;97178.59;5062786;28;20020;-78
2023/12/06 02:30:42;;;;;;;54.30;19.25;;;;;;;0.95;100.00;97173.56;5036223;28;20028;-77
2023/12/06 02:33:07;;;;;;;54.38;20.63;;;;;;;0.99;100.00;97177.81;5071043;28;20103;-78
2023/12/06 02:35:38;;;;;;;49.72;19.67;;;;;;;1.02;100.00;97177.72;5036031;28;20108;-77
2023/12/06 02:38:05;;;;;;;51.42;20.13;;;;;;;1.05;100.00;97177.63;5069129;28;20133;-77
2023/12/06 02:40:31;;;;;;;48.45;18.92;;;;;;;1.14;100.00;97165.97;5072820;28;20444;-77
2023/12/06 02:43:00;;;;;;;52.83;18.98;;;;;;;1.19;100.00;97175.47;5072859;28;20064;-78
2023/12/06 02:45:25;;;;;;;49.38;19.13;;;;;;;1.22;100.00;97164.81;5048960;28;20024;-78
2023/12/06 02:47:52;;;;;;;46.53;18.15;;;;;;;1.31;100.00;97175.06;5090200;28;20085;-78
2023/12/06 02:50:17;;;;;;;47.97;18.45;;;;;;;1.38;100.00;97160.81;5072456;28;20097;-78
2023/12/06 02:52:43;;;;;;;52.92;19.70;;;;;;;1.43;100.00;97164.13;5091001;28;20471;-78
2023/12/06 02:55:09;;;;;;;49.05;18.27;;;;;;;1.32;100.00;97149.59;5072688;28;20065;-77
2023/12/06 02:57:34;;;;;;;44.75;16.50;;;;;;;1.24;100.00;97154.22;5055789;28;20243;-76
2023/12/06 03:00:00;;;;;;;38.28;16.10;;;;;;;1.18;100.00;97152.66;5069356;28;20367;-78
2023/12/06 03:02:25;;;;;;;48.85;17.70;;;;;;;1.12;100.00;97144.94;5070671;28;20020;-78
2023/12/06 03:04:51;;;;;;;49.30;19.63;;;;;;;1.27;100.00;97157.63;5052312;28;20028;-77
2023/12/06 03:07:16;;;;;;;45.20;18.40;;;;;;;1.27;100.00;97152.34;5052661;28;20032;-77
2023/12/06 03:09:42;;;;;;;50.63;18.73;;;;;;;1.25;100.00;97154.19;5071967;28;20143;-77
2023/12/06 03:12:08;;;;;;;46.92;17.50;;;;;;;1.18;100.00;97150.03;5086026;28;20025;-77
2023/12/06 03:14:33;;;;;;;54.22;19.65;;;;;;;1.12;100.00;97146.72;5052095;28;20047;-78
2023/12/06 03:16:59;;;;;;;54.97;20.00;;;;;;;1.05;100.00;97144.28;5058227;28;20104;-78
2023/12/06 03:19:25;;;;;;;58.28;20.40;;;;;;;0.99;100.00;97140.97;5072233;28;20503;-78
2023/12/06 03:21:50;;;;;;;35.83;14.43;;;;;;;1.00;100.00;97148.81;5072391;28;20102;-79
2023/12/06 03:24:16;;;;;;;43.17;16.77;;;;;;;1.00;100.00;97140.06;5056172;28;20032;-78
2023/12/06 03:26:41;;;;;;;43.85;15.77;;;;;;;1.00;100.00;97142.69;5055528;28;20031;-78
2023/12/06 03:29:07;;;;;;;49.83;16.77;;;;;;;1.14;100.00;97147.53;5060284;28;20035;-78
2023/12/06 03:31:33;;;;;;;41.85;16.23;;;;;;;1.18;100.00;97136.84;5056598;28;20032;-78
2023/12/06 03:33:58;;;;;;;38.00;15.05;;;;;;;1.22;100.00;97149.03;5056151;28;20039;-78
2023/12/06 03:36:24;;;;;;;42.05;16.08;;;;;;;1.16;100.00;97141.31;5070750;28;20024;-78
2023/12/06 03:38:49;;;;;;;42.25;15.82;;;;;;;1.17;100.00;97144.81;5061971;28;20021;-78
2023/12/06 03:41:15;;;;;;;46.22;16.23;;;;;;;1.07;100.00;97133.72;5066390;28;20028;-78
2023/12/06 03:43:40;;;;;;;56.17;18.90;;;;;;;1.18;100.00;97139.50;5050774;28;20036;-78
2023/12/06 03:46:09;;;;;;;65.20;26.05;;;;;;;1.06;100.00;97140.75;5044501;28;20025;-78
2023/12/06 03:48:35;;;;;;;78.22;33.28;;;;;;;0.98;100.00;97134.88;5072499;28;20031;-78
2023/12/06 03:51:00;;;;;;;75.85;30.77;;;;;;;0.91;100.00;97129.81;5055662;28;20053;-78
2023/12/06 03:53:26;;;;;;;50.47;20.70;;;;;;;0.89;100.00;97129.84;5056018;28;20036;-78
2023/12/06 03:55:52;;;;;;;55.80;19.58;;;;;;;1.01;100.00;97139.16;5070089;28;20055;-78
2023/12/06 03:58:17;;;;;;;49.47;19.02;;;;;;;0.97;100.00;97143.66;5056285;28;20024;-78
2023/12/06 04:00:43;;;;;;;51.47;19.55;;;;;;;0.91;100.00;97153.50;5075096;28;20028;-78
2023/12/06 04:03:12;;;;;;;54.42;19.05;;;;;;;0.97;100.00;97137.53;5063915;28;20032;-78
2023/12/06 04:05:41;;;;;;;46.17;17.55;;;;;;;1.10;100.00;97141.50;5055815;28;20040;-78
2023/12/06 04:08:06;;;;;;;46.53;18.98;;;;;;;1.19;100.00;97156.16;5069030;28;20092;-78
2023/12/06 04:10:32;;;;;;;51.40;20.10;;;;;;;1.25;100.00;97158.59;5053090;28;20032;-78
2023/12/06 04:12:57;;;;;;;51.55;19.40;;;;;;;1.15;100.00;97158.00;5055649;28;20107;-78
2023/12/06 04:15:23;;;;;;;58.40;20.77;;;;;;;1.17;100.00;97161.44;5059135;28;20024;-78
2023/12/06 04:17:49;;;;;;;54.35;20.33;;;;;;;1.19;100.00;97164.06;5075528;28;20074;-77
2023/12/06 04:20:14;;;;;;;46.08;18.85;;;;;;;1.22;100.00;97177.13;5075752;28;20030;-78
2023/12/06 04:22:40;;;;;;;45.42;17.90;;;;;;;1.28;100.00;97164.63;5093703;28;20100;-78
2023/12/06 04:25:06;;;;;;;48.40;17.00;;;;;;;1.18;100.00;97170.22;5083008;28;20090;-78
2023/12/06 04:27:31;;;;;;;49.85;17.58;;;;;;;1.16;100.00;97172.06;5055433;28;20036;-78
2023/12/06 04:29:57;;;;;;;51.47;19.15;;;;;;;1.26;100.00;97176.97;5064657;28;20038;-77
2023/12/06 04:32:23;;;;;;;68.78;24.60;;;;;;;1.37;100.00;97185.41;5075670;28;20486;-76
2023/12/06 04:34:53;;;;;;;50.92;20.80;;;;;;;1.32;100.00;97189.97;5082825;28;20087;-79
2023/12/06 04:37:19;;;;;;;58.78;21.23;;;;;;;1.24;100.00;97173.53;5055676;28;20028;-78
2023/12/06 04:39:44;;;;;;;58.38;20.83;;;;;;;1.29;100.00;97179.53;5088625;28;20407;-79
2023/12/06 04:42:10;;;;;;;52.40;20.25;;;;;;;1.31;100.00;97179.47;5056795;28;20117;-79
2023/12/06 04:44:36;;;;;;;58.33;22.05;;;;;;;1.20;100.00;97177.16;5074747;28;20059;-78
2023/12/06 04:47:02;;;;;;;53.75;21.20;;;;;;;1.24;100.00;97172.66;5072537;28;20028;-78
2023/12/06 04:49:27;;;;;;;58.00;22.15;;;;;;;1.19;100.00;97175.47;5071786;28;20115;-79
2023/12/06 04:51:53;;;;;;;54.45;20.63;;;;;;;1.16;100.00;97174.69;5037359;28;20501;-77
2023/12/06 04:54:19;;;;;;;53.90;19.85;;;;;;;1.14;100.00;97176.50;5035102;28;20029;-77
2023/12/06 04:56:44;;;;;;;50.58;18.95;;;;;;;1.09;100.00;97179.28;5021927;28;20044;-76
2023/12/06 04:59:10;;;;;;;42.45;18.42;;;;;;;1.18;100.00;97173.72;5054677;28;20412;-77
2023/12/06 05:01:35;;;;;;;47.28;16.17;;;;;;;1.08;100.00;97174.91;5072745;28;20036;-77
2023/12/06 05:04:01;;;;;;;43.35;17.30;;;;;;;1.14;100.00;97166.81;5054551;28;20027;-76
2023/12/06 05:06:27;;;;;;;46.90;16.25;;;;;;;1.19;100.00;97180.72;5054704;28;20134;-77
2023/12/06 05:08:52;;;;;;;46.13;17.80;;;;;;;1.16;100.00;97174.69;5038186;28;20028;-77
2023/12/06 05:11:18;;;;;;;43.58;18.10;;;;;;;1.11;100.00;97187.97;5032643;28;20111;-77
2023/12/06 05:13:44;;;;;;;37.42;15.55;;;;;;;1.23;100.00;97184.97;5034564;28;20071;-78
2023/12/06 05:16:09;;;;;;;40.33;15.45;;;;;;;1.12;100.00;97171.28;5034705;28;20021;-78
2023/12/06 05:18:35;;;;;;;37.15;15.15;;;;;;;1.15;100.00;97181.72;5034278;28;20032;-77
2023/12/06 05:21:00;;;;;;;41.90;16.77;;;;;;;1.08;100.00;97177.53;5034604;28;20025;-78
2023/12/06 05:23:26;;;;;;;40.53;14.65;;;;;;;1.16;100.00;97178.19;5034359;28;20048;-77
2023/12/06 05:25:51;;;;;;;42.13;15.27;;;;;;;1.15;100.00;97167.69;5034394;28;20032;-77
2023/12/06 05:28:17;;;;;;;41.13;16.08;;;;;;;1.11;100.00;97166.91;5033739;28;20099;-76
2023/12/06 05:30:43;;;;;;;41.78;16.42;;;;;;;1.13;100.00;97170.38;5034328;28;20041;-78
2023/12/06 05:33:08;;;;;;;45.70;16.98;;;;;;;1.19;100.00;97171.97;5051835;28;20074;-78
2023/12/06 05:35:34;;;;;;;47.35;20.48;;;;;;;1.07;100.00;97165.31;5017483;28;20056;-76
2023/12/06 05:38:00;;;;;;;49.17;19.40;;;;;;;1.07;100.00;97170.56;5049833;28;20333;-77
2023/12/06 05:40:25;;;;;;;76.07;30.88;;;;;;;1.08;100.00;97167.00;5071622;28;20082;-79
2023/12/06 05:42:51;;;;;;;66.15;20.08;;;;;;;1.06;100.00;97171.47;5054450;28;20021;-76
2023/12/06 05:45:17;;;;;;;56.47;19.35;;;;;;;1.34;100.00;97174.97;5033881;28;20401;-78
2023/12/06 05:47:43;;;;;;;62.95;20.70;;;;;;;1.48;100.00;97172.75;5033998;28;20028;-78
2023/12/06 05:50:10;;;;;;;55.90;20.27;;;;;;;1.41;100.00;97186.19;5053140;28;20445;-78
2023/12/06 05:52:36;;;;;;;73.55;27.15;;;;;;;1.44;100.00;97176.41;5053394;28;20519;-77
2023/12/06 05:55:02;;;;;;;65.28;25.48;;;;;;;1.51;100.00;97177.91;5071554;28;20134;-78
2023/12/06 05:57:28;;;;;;;54.40;20.75;;;;;;;1.21;100.00;97163.09;5071160;28;20020;-77
2023/12/06 05:59:54;;;;;;;56.85;20.08;;;;;;;1.03;100.00;97185.59;5053642;28;20028;-79
2023/12/06 06:02:20;;;;;;;50.42;19.08;;;;;;;1.04;100.00;97181.19;5052768;28;20106;-77
2023/12/06 06:04:45;;;;;;;49.40;18.70;;;;;;;1.11;100.00;97174.81;5053645;28;20051;-77
2023/12/06 06:07:11;;;;;;;59.28;21.73;;;;;;;1.21;100.00;97173.63;5053155;28;20111;-78
2023/12/06 06:09:37;;;;;;;56.15;20.42;;;;;;;1.03;100.00;97168.94;5053043;28;20032;-78
2023/12/06 06:12:03;;;;;;;37.30;16.05;;;;;;;1.03;100.00;97184.72;5052971;28;20024;-77
2023/12/06 06:14:29;;;;;;;41.83;17.25;;;;;;;0.97;100.00;97192.81;5053237;28;20047;-77
2023/12/06 06:16:55;;;;;;;48.17;15.95;;;;;;;0.98;100.00;97192.78;5053143;28;20036;-77
2023/12/06 06:19:20;;;;;;;44.60;16.20;;;;;;;1.06;100.00;97200.44;5052927;28;20040;-76
2023/12/06 06:21:46;;;;;;;40.70;16.23;;;;;;;1.08;100.00;97198.59;5036468;28;20131;-78
2023/12/06 06:24:11;;;;;;;46.05;18.95;;;;;;;1.18;100.00;97200.06;5053119;28;20070;-77
2023/12/06 06:26:37;;;;;;;55.97;19.70;;;;;;;1.22;100.00;97195.56;5052838;28;20523;-77
2023/12/06 06:29:03;;;;;;;57.05;17.58;;;;;;;1.24;100.00;97194.59;5053081;28;20020;-77
2023/12/06 06:31:28;;;;;;;57.10;19.40;;;;;;;1.30;100.00;97193.53;5070182;28;20025;-76
2023/12/06 06:33:54;;;;;;;59.67;23.88;;;;;;;1.46;100.00;97200.94;5053143;28;20425;-77
2023/12/06 06:36:19;;;;;;;52.05;21.35;;;;;;;1.36;100.00;97188.06;5052836;28;20515;-76
2023/12/06 06:38:46;;;;;;;52.25;21.75;;;;;;;1.42;100.00;97201.94;5070510;28;20024;-77
2023/12/06 06:41:11;;;;;;;52.03;19.00;;;;;;;1.35;100.00;97199.56;5052995;28;20051;-77
2023/12/06 06:43:37;;;;;;;46.17;18.40;;;;;;;1.31;100.00;97190.88;5052209;28;20478;-76
2023/12/06 06:46:03;;;;;;;54.00;18.33;;;;;;;1.30;100.00;97194.41;5035809;28;20112;-76
2023/12/06 06:48:28;;;;;;;62.10;20.60;;;;;;;1.39;100.00;97204.66;5069168;28;20032;-75
2023/12/06 06:50:54;;;;;;;49.65;19.85;;;;;;;1.40;100.00;97200.25;5079039;28;20503;-76
2023/12/06 06:53:19;;;;;;;46.45;19.65;;;;;;;1.39;100.00;97196.75;5090836;28;20138;-77
2023/12/06 06:55:45;;;;;;;65.88;22.45;;;;;;;1.51;100.00;97206.91;5090379;28;20024;-76
2023/12/06 06:58:10;;;;;;;87.68;34.28;;;;;;;1.56;100.00;97207.63;5090502;28;20466;-77
2023/12/06 07:00:36;;;;;;;99.60;35.30;;;;;;;1.60;100.00;97209.25;5072445;28;20031;-77
2023/12/06 07:03:02;;;;;;;76.50;32.10;;;;;;;1.64;100.00;97208.25;5090842;28;20089;-77
2023/12/06 07:05:27;;;;;;;74.18;33.03;;;;;;;1.63;100.00;97209.13;5086949;28;20128;-77
2023/12/06 07:07:53;;;;;;;54.00;23.08;;;;;;;1.50;100.00;97197.28;5052586;28;20028;-77
2023/12/06 07:10:22;;;;;;;90.13;35.53;;;;;;;1.56;100.00;97205.00;5054037;28;20404;-78
2023/12/06 07:12:47;;;;;;;73.38;27.23;;;;;;;1.55;100.00;97205.03;5052234;28;20028;-75
2023/12/06 07:15:14;;;;;;;63.22;25.35;;;;;;;1.66;100.00;97207.34;5052094;28;20032;-76
2023/12/06 07:17:43;;;;;;;70.95;26.40;;;;;;;1.60;100.00;97196.06;5069903;28;20493;-76
2023/12/06 07:20:11;;;;;;;51.70;19.48;;;;;;;1.61;100.00;97199.56;5052075;28;20480;-77
2023/12/06 07:22:37;;;;;;;48.58;19.02;;;;;;;1.63;100.00;97203.88;5071227;28;20030;-78
2023/12/06 07:25:05;;;;;;;55.75;20.13;;;;;;;1.49;100.00;97210.50;5067902;28;20016;-77
2023/12/06 07:27:30;;;;;;;67.60;21.60;;;;;;;1.32;100.00;97200.50;5077642;28;20021;-77
2023/12/06 07:29:56;;;;;;;59.30;20.73;;;;;;;1.39;100.00;97201.16;5035540;28;20377;-77
2023/12/06 07:32:21;;;;;;;69.50;20.70;;;;;;;1.58;100.00;97211.06;5070040;28;20025;-76
2023/12/06 07:34:47;;;;;;;104.10;25.92;;;;;;;1.66;100.00;97202.06;5051942;28;20500;-76
2023/12/06 07:37:13;;;;;;;70.10;23.88;;;;;;;1.76;100.00;97208.75;5052050;28;20119;-77
2023/12/06 07:39:39;;;;;;;67.00;22.02;;;;;;;1.97;100.00;97206.25;5049424;28;20025;-76
2023/12/06 07:42:04;;;;;;;70.68;23.40;;;;;;;2.03;100.00;97202.56;5052019;28;20039;-77
2023/12/06 07:44:30;;;;;;;57.90;19.58;;;;;;;2.18;100.00;97202.06;5069992;28;20024;-78
2023/12/06 07:46:55;;;;;;;49.42;18.60;;;;;;;2.16;100.00;97207.38;5071483;28;20468;-77
2023/12/06 07:49:21;;;;;;;55.80;19.67;;;;;;;2.11;100.00;97204.03;5089656;28;20019;-78
2023/12/06 07:51:47;;;;;;;57.30;22.80;;;;;;;2.12;100.00;97207.53;5071502;28;20097;-77
2023/12/06 07:54:12;;;;;;;58.70;22.42;;;;;;;1.87;100.00;97204.00;5090066;28;20031;-77
2023/12/06 07:56:38;;;;;;;62.70;22.90;;;;;;;1.93;100.00;97206.44;5037963;28;20025;-77
2023/12/06 07:59:04;;;;;;;57.60;21.08;;;;;;;1.92;100.00;97218.75;5055537;28;20115;-78
2023/12/06 08:01:31;;;;;;;64.07;21.35;;;;;;;2.00;100.00;97207.97;5072068;28;20052;-77
2023/12/06 08:03:57;;;;;;;57.80;19.58;;;;;;;2.12;100.00;97212.81;5089885;28;20476;-77
2023/12/06 08:06:23;;;;;;;49.83;20.20;;;;;;;2.10;100.00;97204.94;5054998;28;20404;-78
2023/12/06 08:08:50;;;;;;;53.50;19.90;;;;;;;2.11;100.00;97211.06;5071693;28;20086;-77
2023/12/06 08:11:17;;;;;;;60.15;20.60;;;;;;;2.12;100.00;97207.53;5064257;28;20025;-77
2023/12/06 08:13:42;;;;;;;65.32;21.33;;;;;;;2.16;100.00;97214.41;5035023;28;20051;-77
2023/12/06 08:16:08;;;;;;;50.13;21.10;;;;;;;2.16;100.00;97210.00;5071372;28;20024;-77
2023/12/06 08:18:34;;;;;;;79.00;27.48;;;;;;;2.09;100.00;97212.91;5055173;28;20385;-78
2023/12/06 08:20:59;;;;;;;53.80;20.05;;;;;;;2.23;100.00;97210.66;5055289;28;20024;-77
2023/12/06 08:23:25;;;;;;;60.95;21.00;;;;;;;2.42;100.00;97210.88;5055439;28;20079;-76
2023/12/06 08:25:50;;;;;;;63.00;23.90;;;;;;;2.57;100.00;97205.91;5056295;28;20115;-78
2023/12/06 08:28:16;;;;;;;71.15;27.50;;;;;;;2.64;100.00;97203.91;5080211;28;20028;-77
2023/12/06 08:30:42;;;;;;;77.35;29.55;;;;;;;2.67;100.00;97202.03;5081300;28;20138;-77
2023/12/06 08:33:07;;;;;;;73.93;27.92;;;;;;;2.85;100.00;97194.34;5058222;28;20030;-77
2023/12/06 08:35:33;;;;;;;72.95;28.08;;;;;;;2.86;100.00;97198.72;5057073;28;20090;-77
2023/12/06 08:37:59;;;;;;;60.88;23.95;;;;;;;3.03;100.00;97199.81;5072795;28;20043;-77
2023/12/06 08:40:26;;;;;;;62.67;24.17;;;;;;;3.01;100.00;97195.50;5072933;28;20027;-78
2023/12/06 08:42:52;;;;;;;53.03;20.42;;;;;;;2.74;100.00;97203.50;5055152;28;20029;-77
2023/12/06 08:45:17;;;;;;;57.97;21.83;;;;;;;2.87;100.00;97196.00;5072962;28;20106;-77
2023/12/06 08:47:43;;;;;;;63.42;20.92;;;;;;;2.80;100.00;97196.31;5072437;28;20036;-77
2023/12/06 08:50:09;;;;;;;53.08;20.80;;;;;;;2.73;100.00;97185.97;5054746;28;20519;-78
2023/12/06 08:52:35;;;;;;;60.63;22.55;;;;;;;2.90;100.00;97184.47;5054730;28;20040;-77
2023/12/06 08:55:01;;;;;;;55.80;22.15;;;;;;;2.91;100.00;97179.13;5054698;28;20448;-77
2023/12/06 08:57:27;;;;;;;62.33;22.45;;;;;;;2.88;100.00;97186.31;5054492;28;20038;-77
2023/12/06 08:59:53;;;;;;;61.10;23.58;;;;;;;2.82;100.00;97178.63;5054520;28;20025;-77
2023/12/06 09:02:18;;;;;;;69.47;23.30;;;;;;;2.79;100.00;97162.88;5038072;28;20071;-78
2023/12/06 09:04:44;;;;;;;43.33;17.13;;;;;;;2.83;100.00;97164.50;5038208;28;20040;-77
2023/12/06 09:07:10;;;;;;;48.95;18.55;;;;;;;2.74;100.00;97179.75;5072425;28;20472;-77
2023/12/06 09:09:35;;;;;;;42.53;18.08;;;;;;;2.76;100.00;97173.56;5054457;28;20091;-77
2023/12/06 09:12:01;;;;;;;46.20;17.52;;;;;;;2.81;100.00;97164.53;5037535;28;20507;-77
2023/12/06 09:14:27;;;;;;;48.90;15.40;;;;;;;2.67;100.00;97159.78;5037717;28;20134;-77
2023/12/06 09:16:52;;;;;;;47.20;15.88;;;;;;;2.73;100.00;97162.22;5054268;28;20092;-78
2023/12/06 09:19:18;;;;;;;51.72;17.40;;;;;;;2.90;100.00;97158.91;5046654;28;20543;-77
2023/12/06 09:21:46;;;;;;;51.15;18.33;;;;;;;2.95;100.00;97158.75;5083917;28;20032;-77
2023/12/06 09:24:15;;;;;;;48.42;17.85;;;;;;;3.12;100.00;97156.31;5074218;28;20127;-78
2023/12/06 09:26:41;;;;;;;39.97;16.65;;;;;;;3.22;100.00;97140.03;5050408;28;20070;-78
2023/12/06 09:29:08;;;;;;;47.95;17.75;;;;;;;2.95;100.00;97140.25;5053747;28;20042;-76
2023/12/06 09:31:34;;;;;;;49.03;16.92;;;;;;;3.14;100.00;97138.59;5054484;28;20036;-77
2023/12/06 09:34:01;;;;;;;42.67;16.67;;;;;;;3.32;100.00;97132.63;5053964;28;20440;-77
2023/12/06 09:36:28;;;;;;;45.80;17.23;;;;;;;3.29;100.00;97132.75;5037406;28;20039;-76
2023/12/06 09:38:57;;;;;;;49.42;18.70;;;;;;;3.31;100.00;97137.94;5069759;28;20024;-77
2023/12/06 09:41:30;;;;;;;39.30;17.02;;;;;;;3.49;100.00;97134.56;5054561;28;20041;-77
2023/12/06 09:43:57;;;;;;;41.75;17.60;;;;;;;3.29;100.00;97132.75;5073793;28;20106;-77
2023/12/06 09:46:23;;;;;;;42.42;17.33;;;;;;;3.22;100.00;97120.69;5073728;28;20496;-77
2023/12/06 09:48:49;;;;;;;43.50;17.58;;;;;;;3.32;100.00;97126.47;5067082;28;20021;-78
2023/12/06 09:51:15;;;;;;;45.05;17.48;;;;;;;3.42;100.00;97118.09;5071387;28;20063;-77
2023/12/06 09:53:41;;;;;;;45.17;17.80;;;;;;;3.40;100.00;97119.94;5037132;28;20031;-77
2023/12/06 09:56:11;;;;;;;52.83;18.95;;;;;;;3.65;100.00;97123.31;5053594;28;20020;-78
2023/12/06 09:58:37;;;;;;;48.70;20.02;;;;;;;3.70;100.00;97118.69;5071587;28;20498;-78
2023/12/06 10:01:03;;;;;;;46.22;19.23;;;;;;;3.63;100.00;97114.56;5069660;28;20032;-77
2023/12/06 10:03:31;;;;;;;44.28;18.27;;;;;;;3.51;100.00;97115.06;5073946;28;20518;-78
2023/12/06 10:05:57;;;;;;;103.43;31.98;;;;;;;3.45;100.00;97110.03;5072938;28;20554;-76
2023/12/06 10:08:24;;;;;;;49.13;20.05;;;;;;;3.47;100.00;97109.97;5064778;28;20025;-76
2023/12/06 10:11:08;;;;;;;63.50;26.38;;;;;;;3.61;100.00;97112.91;5056584;28;20074;-77
2023/12/06 10:13:38;;;;;;;73.40;29.08;;;;;;;3.68;100.00;97109.97;5058511;28;20063;-78
2023/12/06 10:16:19;;;;;;;57.50;23.70;;;;;;;3.95;100.00;97117.63;5036657;28;20052;-77
2023/12/06 10:18:49;;;;;;;51.78;20.35;;;;;;;3.91;100.00;97108.13;5053146;28;20041;-77
2023/12/06 10:21:17;;;;;;;44.90;18.55;;;;;;;3.92;100.00;97116.00;5053084;28;20107;-78
2023/12/06 10:23:55;;;;;;;47.53;19.67;;;;;;;3.89;100.00;97107.31;5069834;28;20083;-78
2023/12/06 10:26:21;;;;;;;52.30;20.10;;;;;;;3.81;100.00;97115.59;5053431;28;20036;-78
2023/12/06 10:28:47;;;;;;;50.08;20.00;;;;;;;3.51;100.00;97111.56;5056492;28;20035;-78
2023/12/06 10:31:13;;;;;;;46.45;20.00;;;;;;;3.36;100.00;97098.97;5056189;28;20034;-77
2023/12/06 10:33:39;;;;;;;44.72;18.20;;;;;;;3.08;100.00;97096.56;5090095;28;20024;-78
2023/12/06 10:36:08;;;;;;;51.60;19.95;;;;;;;3.01;100.00;97108.31;5073017;28;20032;-78
2023/12/06 10:38:36;;;;;;;50.70;19.73;;;;;;;3.07;100.00;97108.09;5072152;28;20031;-77
2023/12/06 10:41:02;;;;;;;49.42;19.80;;;;;;;3.18;100.00;97105.88;5052760;28;20119;-77
2023/12/06 10:43:29;;;;;;;45.30;18.58;;;;;;;3.24;100.00;97105.63;5052685;28;20055;-77
2023/12/06 10:45:55;;;;;;;46.88;17.80;;;;;;;3.34;100.00;97100.81;5052644;28;20024;-77
2023/12/06 10:48:21;;;;;;;43.60;17.67;;;;;;;3.10;100.00;97100.91;5035804;28;20024;-77
2023/12/06 10:50:47;;;;;;;48.67;17.23;;;;;;;3.32;100.00;97102.69;5065742;28;20048;-78
2023/12/06 10:53:19;;;;;;;38.40;15.68;;;;;;;3.19;100.00;97105.81;5073127;28;20404;-78
2023/12/06 10:55:46;;;;;;;43.38;16.33;;;;;;;3.26;100.00;97098.50;5073824;28;20031;-78
2023/12/06 10:58:14;;;;;;;36.03;15.25;;;;;;;3.25;100.00;97091.50;5069075;28;20028;-78
2023/12/06 11:00:40;;;;;;;37.30;15.05;;;;;;;3.32;100.00;97100.91;5050035;28;20487;-78
2023/12/06 11:03:06;;;;;;;35.83;15.75;;;;;;;3.37;100.00;97098.94;5065647;28;20040;-78
2023/12/06 11:05:37;;;;;;;37.53;15.85;;;;;;;3.54;100.00;97090.28;5067805;28;20028;-76
2023/12/06 11:08:33;;;;;;;36.83;15.88;;;;;;;3.69;100.00;97101.06;5052960;28;20032;-77
2023/12/06 11:11:27;;;;;;;37.08;14.77;;;;;;;3.70;100.00;97094.00;5068850;28;20037;-77
2023/12/06 11:13:52;;;;;;;33.30;15.45;;;;;;;3.76;100.00;97096.41;5075051;28;20024;-77